Maysville, Arkansas
Current Conditions -  °F | °C
As of 9:35 AM on Monday 24 Nov 2014 (Local Time) from KSLG Reporting Station
Clear Clear  
Wind Chill: 37°   Ceiling: Unl
Heat Index: 43°   Visibility: 10mi
Dew Point: 28°   Wind: 10mph
Humidity: 57%   Direction: 260°W
Pressure: 29.89"   Gusts: 16mph
Location:  36.4°N, 94.6°W
Report Text: KSLG 241535Z AUTO 26009G14KT 10SM CLR 06/M02 A2989 RMK AO1
Loading
Personal Weather Stations






























Interactive Weather Map New forecast layout! Learn more

10-Day Weather Forecast

Advertisements
Track Severe Weather on mobile